Hovedside
METAR-TAF:

METAR-TAF

Lufthavner :

Rørvik lufthavn. Ryum

Rørvik, Norge

breddegrad: 64-50N, lengdegrad: 011-09E, høyde over havet: 4 m

Gjeldene værobservasjon

Denne rapporten ble laget for 16 minutter siden, klokken 06:20 UTC
Vind 8 kt fra Sør-sørøst
Temperatur 2°C
Luftfuktighet 80%
Trykk 1017 hPa
Sikt 10 km eller mer
Spredte skyer i en høyde av 2000 ft
Brutte skyer i en høyde av 3000 ft
lett regn

METAR: ENRM 150620Z 15008KT 9999 -RA SCT020 BKN030 02/M01 Q1017

Tid: 07:36 (06:36 UTC)

Varsel

Denne rapporten ble laget for 13 timer og 36 minutter siden, klokken 17:00 UTC
Varsel gyldig fra 14. klokken 18 UTC til 14. klokken 21 UTC
Vind 8 kt fra Sørøst
Sikt 10 km eller mer
Få skyer i en høyde av 1500 ft
Spredte skyer i en høyde av 3000 ft

TAF: ENRM 141700Z 1418/1421 14008KT 9999 FEW015 SCT030

Værobservasjoner og værvarsel for over 4000 flyplasser (METAR- og TAF-rapporter).

Tilgjengelige stasjoner er representert av de røde og gule prikkene på kartet.

Hold musepekeren over prikken for å se navnet på stasjonen.

Klikk så for å se værobservasjoner og -varsler.

For å forandre kartet kan du klikke på den grønne knappen med svart kryss for å zoome inn, på den grønne knappen med strek for å zoome ut, eller på de grønne pilene for å se tilstøtende kart.


METAR-TAF: